Time;durP1;ratioP1;P1;durP2;ratioP2;P2;SDS_P1;SDS_P2;PMS_P1;PMS_P2;Temp;Humidity;BMP_temperature;BMP_pressure;BME280_temperature;BME280_humidity;BME280_pressure;Samples;Min_cycle;Max_cycle;Signal;HPM_P1;HPM_P2
2022/11/08 00:01:57;;;;;;;4.20;1.73;;;14.70;99.90;;;;;;5028325;28;20080;-74
2022/11/08 00:04:24;;;;;;;3.08;1.42;;;14.70;99.90;;;;;;5043431;28;20049;-74
2022/11/08 00:15:07;;;;;;;4.07;1.35;;;14.50;99.90;;;;;;5042857;28;20049;-74
2022/11/08 00:17:34;;;;;;;5.57;1.40;;;14.40;99.90;;;;;;5026963;28;20049;-74
2022/11/08 00:20:00;;;;;;;4.47;1.40;;;14.40;99.90;;;;;;5007155;28;20059;-74
2022/11/08 00:22:30;;;;;;;3.53;1.25;;;14.40;99.90;;;;;;5006954;28;20049;-74
2022/11/08 00:24:57;;;;;;;3.05;1.40;;;14.40;99.90;;;;;;5004039;28;20069;-74
2022/11/08 00:27:24;;;;;;;2.78;1.52;;;14.40;99.90;;;;;;5023131;28;20140;-74
2022/11/08 00:29:51;;;;;;;5.10;1.60;;;14.40;99.90;;;;;;5032609;28;20350;-74
2022/11/08 00:32:19;;;;;;;2.45;1.30;;;14.40;99.90;;;;;;5026430;28;20049;-74
2022/11/08 00:34:47;;;;;;;3.70;1.63;;;14.40;99.90;;;;;;5042754;28;20049;-74
2022/11/08 00:37:15;;;;;;;4.15;1.90;;;14.40;99.90;;;;;;5042834;28;20053;-74
2022/11/08 00:39:42;;;;;;;3.63;1.17;;;14.30;99.90;;;;;;5042862;28;20564;-74
2022/11/08 00:42:08;;;;;;;3.65;1.23;;;14.40;99.90;;;;;;5043163;28;20053;-74
2022/11/08 00:44:35;;;;;;;4.80;1.75;;;14.30;99.90;;;;;;5041588;28;20638;-74
2022/11/08 00:47:02;;;;;;;3.55;1.52;;;14.40;99.90;;;;;;5043676;28;20052;-74
2022/11/08 00:49:29;;;;;;;3.30;1.48;;;14.30;99.90;;;;;;5042355;28;20164;-74
2022/11/08 00:51:55;;;;;;;3.38;1.20;;;14.40;99.90;;;;;;5043580;28;20534;-74
2022/11/08 00:54:22;;;;;;;4.97;1.75;;;14.30;99.90;;;;;;5043321;28;20053;-74
2022/11/08 00:56:49;;;;;;;3.42;1.38;;;14.40;99.90;;;;;;5042680;28;20041;-75
2022/11/08 00:59:17;;;;;;;6.60;2.10;;;14.40;99.90;;;;;;5042617;28;20061;-74
2022/11/08 01:01:44;;;;;;;2.75;1.42;;;14.40;99.90;;;;;;5024673;28;20045;-74
2022/11/08 01:04:13;;;;;;;2.72;1.30;;;14.40;99.90;;;;;;5041622;28;20067;-74
2022/11/08 01:06:40;;;;;;;3.03;1.60;;;14.40;99.90;;;;;;5043118;28;20485;-74
2022/11/08 01:09:07;;;;;;;5.53;2.22;;;14.40;99.90;;;;;;5042962;28;20053;-74
2022/11/08 01:11:33;;;;;;;4.53;1.90;;;14.40;99.90;;;;;;5042838;28;20518;-76
2022/11/08 01:14:00;;;;;;;3.92;1.85;;;14.40;99.90;;;;;;5027144;28;20147;-74
2022/11/08 01:16:45;;;;;;;1.88;1.20;;;14.40;99.90;;;;;;5040445;28;20602;-74
2022/11/08 01:19:12;;;;;;;5.13;1.90;;;14.40;99.90;;;;;;5025331;28;20048;-74
2022/11/08 01:21:38;;;;;;;3.67;2.03;;;14.40;99.90;;;;;;5025378;28;20060;-74
2022/11/08 01:24:05;;;;;;;3.42;1.35;;;14.40;99.90;;;;;;5042478;28;20566;-74
2022/11/08 01:26:32;;;;;;;4.35;2.05;;;14.40;99.90;;;;;;5041689;28;20045;-75
2022/11/08 01:28:59;;;;;;;4.00;1.67;;;14.40;99.90;;;;;;5044641;28;20059;-75
2022/11/08 01:31:28;;;;;;;4.90;1.80;;;14.40;99.90;;;;;;5027554;28;20059;-74
2022/11/08 01:33:54;;;;;;;3.90;1.52;;;14.40;99.90;;;;;;5028418;28;20053;-74
2022/11/08 01:36:22;;;;;;;3.05;1.38;;;14.40;99.90;;;;;;5028528;28;20052;-74
2022/11/08 01:38:49;;;;;;;4.20;1.65;;;14.40;99.90;;;;;;5044667;28;20501;-74
2022/11/08 01:41:16;;;;;;;5.40;2.17;;;14.40;99.90;;;;;;5011857;28;20501;-74
2022/11/08 01:43:54;;;;;;;4.40;1.45;;;14.40;99.90;;;;;;5028722;28;20155;-74
2022/11/08 01:46:30;;;;;;;3.63;1.63;;;14.40;99.90;;;;;;5026979;28;20563;-74
2022/11/08 01:49:08;;;;;;;3.42;1.73;;;14.50;99.90;;;;;;5045641;28;20079;-74
2022/11/08 01:51:54;;;;;;;3.40;1.67;;;14.50;99.90;;;;;;5046302;28;20057;-74
2022/11/08 01:54:38;;;;;;;4.28;1.60;;;14.50;99.90;;;;;;5045106;28;20132;-74
2022/11/08 01:57:07;;;;;;;4.68;2.05;;;14.50;99.90;;;;;;5045224;28;20055;-74
2022/11/08 01:59:34;;;;;;;2.67;1.75;;;14.50;99.90;;;;;;5024442;28;20160;-74
2022/11/08 02:02:01;;;;;;;3.35;1.77;;;14.50;99.90;;;;;;5008429;28;20059;-74
2022/11/08 02:04:28;;;;;;;3.17;1.30;;;14.60;99.90;;;;;;5020959;28;20466;-74
2022/11/08 02:06:55;;;;;;;3.67;1.80;;;14.50;99.90;;;;;;5028100;28;20053;-74
2022/11/08 02:09:21;;;;;;;3.15;1.27;;;14.50;99.90;;;;;;5028508;28;20053;-74
2022/11/08 02:11:48;;;;;;;2.95;1.40;;;14.50;99.90;;;;;;5044364;28;20128;-74
2022/11/08 02:14:15;;;;;;;4.45;1.60;;;14.60;99.90;;;;;;5044680;28;20052;-74
2022/11/08 02:16:42;;;;;;;5.07;1.38;;;14.50;99.90;;;;;;5043326;28;20045;-74
2022/11/08 02:19:13;;;;;;;2.30;1.67;;;14.60;99.90;;;;;;5045622;28;20065;-74
2022/11/08 02:21:45;;;;;;;3.38;1.50;;;14.60;99.90;;;;;;5028246;28;20144;-74
2022/11/08 02:24:12;;;;;;;3.78;1.50;;;14.70;99.90;;;;;;5028461;28;20531;-74
2022/11/08 02:26:39;;;;;;;3.42;1.58;;;14.70;99.90;;;;;;5011516;28;20543;-74
2022/11/08 02:29:41;;;;;;;3.20;1.67;;;14.70;99.90;;;;;;5044412;28;20516;-74
2022/11/08 02:32:10;;;;;;;2.45;1.15;;;14.60;99.90;;;;;;5006264;28;20532;-74
2022/11/08 02:34:54;;;;;;;2.13;1.20;;;14.50;99.90;;;;;;5035415;28;20116;-74
2022/11/08 02:37:20;;;;;;;1.83;1.08;;;14.40;99.90;;;;;;5007298;28;20578;-74
2022/11/08 02:39:47;;;;;;;2.90;1.45;;;14.40;99.90;;;;;;5016320;28;20410;-74
2022/11/08 02:42:15;;;;;;;3.83;1.48;;;14.40;99.90;;;;;;5027853;28;20056;-74
2022/11/08 02:44:42;;;;;;;2.45;1.50;;;14.40;99.90;;;;;;5028797;28;20057;-74
2022/11/08 02:47:08;;;;;;;3.10;1.52;;;14.50;99.90;;;;;;5044906;28;20057;-74
2022/11/08 02:49:35;;;;;;;2.35;1.17;;;14.50;99.90;;;;;;5045640;28;20493;-74
2022/11/08 02:52:02;;;;;;;2.28;1.40;;;14.60;99.90;;;;;;5047536;28;20049;-74
2022/11/08 02:54:29;;;;;;;2.67;1.38;;;14.60;99.90;;;;;;5031640;28;20053;-74
2022/11/08 02:56:56;;;;;;;3.30;1.60;;;14.60;99.90;;;;;;5049565;28;20437;-74
2022/11/08 02:59:22;;;;;;;3.08;1.20;;;14.70;99.90;;;;;;5049972;28;20553;-74
2022/11/08 03:01:49;;;;;;;1.70;1.00;;;14.70;99.90;;;;;;5030792;28;20428;-74
2022/11/08 03:04:16;;;;;;;2.28;1.27;;;14.70;99.90;;;;;;5048478;28;20132;-74
2022/11/08 03:06:43;;;;;;;2.75;1.20;;;14.70;99.90;;;;;;5049432;28;20139;-74
2022/11/08 03:09:10;;;;;;;1.52;0.85;;;14.70;99.90;;;;;;5049303;28;20049;-74
2022/11/08 03:11:37;;;;;;;2.05;1.08;;;14.70;99.90;;;;;;5049087;28;20128;-74
2022/11/08 03:14:03;;;;;;;2.35;1.20;;;14.70;99.90;;;;;;5049489;28;20064;-75
2022/11/08 03:16:30;;;;;;;2.28;1.10;;;14.70;99.90;;;;;;5046700;28;20055;-74
2022/11/08 03:18:57;;;;;;;2.05;1.10;;;14.70;99.90;;;;;;5048840;28;20484;-74
2022/11/08 03:21:24;;;;;;;3.17;1.20;;;14.60;99.90;;;;;;5047486;28;20492;-74
2022/11/08 03:23:50;;;;;;;2.33;1.27;;;14.70;99.90;;;;;;5049303;28;20135;-74
2022/11/08 03:26:17;;;;;;;1.88;1.27;;;14.60;99.90;;;;;;5015254;28;20075;-74
2022/11/08 03:28:44;;;;;;;2.70;1.23;;;14.60;99.90;;;;;;5047698;28;20584;-74
2022/11/08 03:31:10;;;;;;;2.72;1.30;;;14.60;99.90;;;;;;5047727;28;20053;-74
2022/11/08 03:33:37;;;;;;;2.03;1.10;;;14.50;99.90;;;;;;5047911;28;20072;-74
2022/11/08 03:36:04;;;;;;;3.97;1.20;;;14.40;99.90;;;;;;5047621;28;20053;-74
2022/11/08 03:38:31;;;;;;;2.45;1.00;;;14.40;99.90;;;;;;5047829;28;20045;-74
2022/11/08 03:40:58;;;;;;;1.95;1.20;;;14.30;99.90;;;;;;5048797;28;20049;-74
2022/11/08 03:43:25;;;;;;;4.78;1.17;;;14.30;99.90;;;;;;5048990;28;20045;-74
2022/11/08 03:45:52;;;;;;;1.38;0.80;;;14.30;99.90;;;;;;5029966;28;20057;-74
2022/11/08 03:48:18;;;;;;;1.88;0.75;;;14.30;99.90;;;;;;5047326;28;20056;-74
2022/11/08 03:50:46;;;;;;;3.03;1.30;;;14.20;99.90;;;;;;5047283;28;20328;-74
2022/11/08 03:53:13;;;;;;;1.63;0.70;;;14.20;99.90;;;;;;5047572;28;20053;-74
2022/11/08 03:55:41;;;;;;;1.77;0.75;;;14.20;99.90;;;;;;5030833;28;20100;-74
2022/11/08 03:58:07;;;;;;;1.90;1.05;;;14.20;99.90;;;;;;5047539;28;20118;-74
2022/11/08 04:00:34;;;;;;;1.75;0.90;;;14.20;99.90;;;;;;5028915;28;20542;-74
2022/11/08 04:03:02;;;;;;;1.95;0.80;;;14.20;99.90;;;;;;5046451;28;20049;-74
2022/11/08 04:05:31;;;;;;;2.38;1.05;;;14.20;99.90;;;;;;5030773;28;20060;-74
2022/11/08 04:07:59;;;;;;;1.67;0.90;;;14.10;99.90;;;;;;5030914;28;20041;-74
2022/11/08 04:10:25;;;;;;;1.20;0.75;;;14.10;99.90;;;;;;5030623;28;20131;-74
2022/11/08 04:15:37;;;;;;;3.50;1.15;;;13.90;99.90;;;;;;5025670;28;20060;-74
2022/11/08 04:23:35;;;;;;;3.33;1.30;;;13.80;99.90;;;;;;5038016;28;20055;-74
2022/11/08 04:26:03;;;;;;;1.90;1.10;;;13.70;99.90;;;;;;5030899;28;20063;-74
2022/11/08 04:28:31;;;;;;;1.25;0.80;;;13.70;99.90;;;;;;5046991;28;20132;-74
2022/11/08 04:31:01;;;;;;;1.75;1.00;;;13.70;99.90;;;;;;5012920;28;20401;-74
2022/11/08 04:33:28;;;;;;;2.78;1.60;;;13.70;99.90;;;;;;5030449;28;20057;-74
2022/11/08 04:35:55;;;;;;;2.15;0.90;;;13.70;99.90;;;;;;5013428;28;20049;-74
2022/11/08 04:38:21;;;;;;;2.00;0.80;;;13.70;99.90;;;;;;5048491;28;20065;-74
2022/11/08 04:40:48;;;;;;;3.03;1.02;;;13.70;99.90;;;;;;5047691;28;20630;-74
2022/11/08 04:43:15;;;;;;;2.38;0.75;;;13.70;99.90;;;;;;5030300;28;20044;-74
2022/11/08 04:45:42;;;;;;;2.10;0.95;;;13.70;99.90;;;;;;5045131;28;20060;-74
2022/11/08 04:48:08;;;;;;;2.88;0.98;;;13.70;99.90;;;;;;5047374;28;20496;-74
2022/11/08 04:50:35;;;;;;;3.22;0.90;;;13.70;99.90;;;;;;5047173;28;20064;-74
2022/11/08 04:53:02;;;;;;;2.20;0.98;;;13.70;99.90;;;;;;5046490;28;20045;-74
2022/11/08 04:55:28;;;;;;;2.22;0.80;;;13.70;99.90;;;;;;5029841;28;20056;-74
2022/11/08 04:57:58;;;;;;;1.60;0.73;;;13.60;99.90;;;;;;5046434;28;20056;-74
2022/11/08 05:00:25;;;;;;;2.08;0.90;;;13.60;99.90;;;;;;5044935;28;20103;-74
2022/11/08 05:02:52;;;;;;;1.40;0.95;;;13.60;99.90;;;;;;5045926;28;20400;-74
2022/11/08 05:05:19;;;;;;;1.42;0.82;;;13.50;99.90;;;;;;5046971;28;20045;-74
2022/11/08 05:07:46;;;;;;;1.33;0.70;;;13.50;99.90;;;;;;5046396;28;20045;-75
2022/11/08 05:10:12;;;;;;;1.15;0.70;;;13.40;99.90;;;;;;5045326;28;20071;-74
2022/11/08 05:12:39;;;;;;;1.27;0.80;;;13.40;99.90;;;;;;5029416;28;20049;-74
2022/11/08 05:15:07;;;;;;;1.30;0.80;;;13.30;99.90;;;;;;5044635;28;20067;-74
2022/11/08 05:17:33;;;;;;;1.20;0.70;;;13.30;99.90;;;;;;5045577;28;20468;-75
2022/11/08 05:25:31;;;;;;;3.72;1.20;;;13.30;99.90;;;;;;5047013;28;20079;-74
2022/11/08 05:27:57;;;;;;;2.03;0.88;;;13.30;99.90;;;;;;5046747;28;20053;-74
2022/11/08 05:30:24;;;;;;;1.75;0.73;;;13.30;99.90;;;;;;5045451;28;20063;-74
2022/11/08 05:32:51;;;;;;;0.80;0.50;;;13.30;99.90;;;;;;5046284;28;20049;-74
2022/11/08 05:35:20;;;;;;;1.05;0.40;;;13.20;99.90;;;;;;5045843;28;20562;-74
2022/11/08 05:37:47;;;;;;;2.05;0.60;;;13.20;99.90;;;;;;5045808;28;20404;-74
2022/11/08 05:40:14;;;;;;;1.83;0.60;;;13.10;99.90;;;;;;5044020;28;20052;-73
2022/11/08 05:42:40;;;;;;;0.88;0.63;;;13.00;99.90;;;;;;5028490;28;20045;-74
2022/11/08 05:45:07;;;;;;;1.40;0.63;;;13.00;99.90;;;;;;5043890;28;20055;-74
2022/11/08 05:47:35;;;;;;;0.80;0.50;;;13.00;99.90;;;;;;5044385;28;20931;-74
2022/11/08 05:50:02;;;;;;;1.02;0.60;;;12.90;99.90;;;;;;5023345;28;20054;-74
2022/11/08 05:52:29;;;;;;;1.42;0.50;;;12.90;99.90;;;;;;5023476;28;20704;-74
2022/11/08 05:54:56;;;;;;;1.25;0.43;;;12.90;99.90;;;;;;5043761;28;20060;-74
2022/11/08 05:57:23;;;;;;;1.05;0.60;;;12.90;99.90;;;;;;5043278;28;20449;-74
2022/11/08 05:59:50;;;;;;;1.55;0.50;;;12.80;99.90;;;;;;5042711;28;20875;-74
2022/11/08 06:02:17;;;;;;;1.48;0.68;;;12.90;99.90;;;;;;5042342;28;20084;-74
2022/11/08 06:04:44;;;;;;;2.15;0.68;;;12.90;99.90;;;;;;5038351;28;20082;-74
2022/11/08 06:07:10;;;;;;;2.55;0.43;;;12.90;99.90;;;;;;5040990;28;20598;-74
2022/11/08 06:09:38;;;;;;;1.38;0.73;;;12.90;99.90;;;;;;5025370;28;20056;-75
2022/11/08 06:12:06;;;;;;;1.15;0.52;;;12.90;99.90;;;;;;5019886;28;20053;-74
2022/11/08 06:14:32;;;;;;;1.27;0.70;;;12.90;99.90;;;;;;5042819;28;20167;-75
2022/11/08 06:16:59;;;;;;;1.98;0.90;;;12.90;99.90;;;;;;5027991;28;20045;-74
2022/11/08 06:19:26;;;;;;;0.88;0.50;;;13.00;99.90;;;;;;5020480;28;20067;-74
2022/11/08 06:21:53;;;;;;;1.50;0.70;;;13.00;99.90;;;;;;5032725;28;20503;-74
2022/11/08 06:24:19;;;;;;;1.60;0.77;;;13.00;99.90;;;;;;5025852;28;20040;-74
2022/11/08 06:26:46;;;;;;;1.67;0.73;;;13.00;99.90;;;;;;5023192;28;20053;-74
2022/11/08 06:29:13;;;;;;;1.50;0.80;;;13.00;99.90;;;;;;5028026;28;20046;-74
2022/11/08 06:31:40;;;;;;;2.15;0.70;;;13.00;99.90;;;;;;5030869;28;20053;-74
2022/11/08 06:34:09;;;;;;;1.08;0.60;;;13.00;99.90;;;;;;5034315;28;20126;-74
2022/11/08 06:36:35;;;;;;;1.08;0.70;;;13.00;99.90;;;;;;5009333;28;20057;-74
2022/11/08 06:39:02;;;;;;;1.17;0.60;;;13.10;99.90;;;;;;5025393;28;20051;-74
2022/11/08 06:41:29;;;;;;;0.95;0.45;;;13.00;99.90;;;;;;5032183;28;20046;-74
2022/11/08 06:43:56;;;;;;;2.03;0.68;;;13.00;99.90;;;;;;5029990;28;20041;-74
2022/11/08 06:46:22;;;;;;;1.33;0.50;;;13.10;99.90;;;;;;5045336;28;20068;-74
2022/11/08 06:48:49;;;;;;;1.65;0.52;;;13.10;99.90;;;;;;5026631;28;20620;-74
2022/11/08 06:51:16;;;;;;;1.48;0.40;;;13.10;99.90;;;;;;5034340;28;20054;-74
2022/11/08 06:53:43;;;;;;;1.85;0.60;;;13.10;99.90;;;;;;5013646;28;20049;-74
2022/11/08 06:56:10;;;;;;;1.00;0.50;;;13.20;99.90;;;;;;5030348;28;20188;-74
2022/11/08 06:58:37;;;;;;;2.03;0.63;;;13.20;99.90;;;;;;5026840;28;20512;-75
2022/11/08 07:01:04;;;;;;;0.52;0.35;;;13.20;99.90;;;;;;5029136;28;20057;-75
2022/11/08 07:03:32;;;;;;;1.35;0.60;;;13.30;99.90;;;;;;5012979;28;20111;-75
2022/11/08 07:06:03;;;;;;;2.28;0.80;;;13.30;99.90;;;;;;5010272;28;20053;-75
2022/11/08 07:08:30;;;;;;;1.10;0.52;;;13.30;99.90;;;;;;5020765;28;20625;-79
2022/11/08 07:10:57;;;;;;;1.33;0.60;;;13.30;99.90;;;;;;5031011;28;20597;-85
2022/11/08 07:13:24;;;;;;;1.40;0.90;;;13.30;99.90;;;;;;5019887;28;20049;-83
2022/11/08 07:15:50;;;;;;;3.53;1.08;;;13.40;99.90;;;;;;5008344;28;20056;-85
2022/11/08 07:18:18;;;;;;;4.50;1.20;;;13.40;99.90;;;;;;4995426;28;20046;-86
2022/11/08 07:20:45;;;;;;;4.15;1.00;;;13.40;99.90;;;;;;5029904;28;20220;-83
2022/11/08 07:23:11;;;;;;;5.68;1.77;;;13.30;99.90;;;;;;5009040;28;20057;-78
2022/11/08 07:25:38;;;;;;;2.47;1.13;;;13.00;99.90;;;;;;5008135;28;20129;-75
2022/11/08 07:28:06;;;;;;;3.95;1.00;;;12.70;99.90;;;;;;5027157;28;20072;-77
2022/11/08 07:30:34;;;;;;;2.75;1.17;;;12.50;99.90;;;;;;5044064;28;20516;-78
2022/11/08 07:33:01;;;;;;;3.60;1.55;;;12.40;99.90;;;;;;5045322;28;20060;-79
2022/11/08 07:35:28;;;;;;;4.93;1.13;;;12.30;99.90;;;;;;5046471;28;20056;-78
2022/11/08 07:37:54;;;;;;;1.25;0.70;;;12.30;99.90;;;;;;5042290;28;20122;-80
2022/11/08 07:40:21;;;;;;;2.45;0.80;;;12.20;99.90;;;;;;5042818;28;20057;-79
2022/11/08 07:42:48;;;;;;;1.45;0.73;;;12.20;99.90;;;;;;5011480;28;20050;-80
2022/11/08 07:45:35;;;;;;;1.83;0.90;;;12.20;99.90;;;;;;5031685;28;20088;-80
2022/11/08 07:48:06;;;;;;;5.45;1.20;;;12.30;99.90;;;;;;5046223;28;20076;-81
2022/11/08 07:50:38;;;;;;;5.55;1.20;;;12.20;99.90;;;;;;5030641;28;20512;-80
2022/11/08 07:53:05;;;;;;;2.75;1.35;;;12.30;99.90;;;;;;5030203;28;20076;-81
2022/11/08 07:55:34;;;;;;;4.03;1.02;;;12.30;99.90;;;;;;5029897;28;20132;-80
2022/11/08 07:58:02;;;;;;;5.25;1.38;;;12.30;99.90;;;;;;5030574;28;20604;-80
2022/11/08 08:00:29;;;;;;;1.35;0.68;;;12.40;99.90;;;;;;5025247;28;20064;-81
2022/11/08 08:02:57;;;;;;;2.33;0.70;;;12.40;99.90;;;;;;5015948;28;20077;-82
2022/11/08 08:05:26;;;;;;;1.17;0.70;;;12.40;99.90;;;;;;5026763;28;20083;-82
2022/11/08 08:07:56;;;;;;;1.48;0.63;;;12.50;99.90;;;;;;5029575;28;20078;-82
2022/11/08 08:10:23;;;;;;;2.08;0.90;;;12.50;99.90;;;;;;5029920;28;20053;-82
2022/11/08 08:12:49;;;;;;;3.63;1.25;;;12.60;99.90;;;;;;5027891;28;20045;-82
2022/11/08 08:15:16;;;;;;;2.80;1.13;;;12.60;99.90;;;;;;5045088;28;20224;-82
2022/11/08 08:17:43;;;;;;;5.57;1.98;;;12.70;99.90;;;;;;5046105;28;20133;-82
2022/11/08 08:20:10;;;;;;;1.92;0.80;;;12.70;99.90;;;;;;5026923;28;20052;-83
2022/11/08 08:22:45;;;;;;;4.13;1.55;;;12.80;99.90;;;;;;5016004;28;20053;-82
2022/11/08 08:25:12;;;;;;;4.95;1.73;;;12.70;99.90;;;;;;5045983;28;20045;-82
2022/11/08 08:27:39;;;;;;;3.08;1.10;;;12.80;99.90;;;;;;5030213;28;20056;-82
2022/11/08 08:30:06;;;;;;;2.92;1.08;;;12.80;99.90;;;;;;5044862;28;20053;-83
2022/11/08 08:32:33;;;;;;;4.65;1.30;;;12.80;99.90;;;;;;5046432;28;20063;-83
2022/11/08 08:35:00;;;;;;;3.00;1.10;;;12.90;99.90;;;;;;5010584;28;20165;-83
2022/11/08 08:37:27;;;;;;;3.80;1.30;;;12.90;99.90;;;;;;5026552;28;20421;-83
2022/11/08 08:39:53;;;;;;;3.30;1.38;;;12.90;99.90;;;;;;5039408;28;20041;-83
2022/11/08 08:42:20;;;;;;;3.60;1.30;;;13.00;99.90;;;;;;5046643;28;20056;-84
2022/11/08 08:44:47;;;;;;;4.05;1.35;;;13.00;99.90;;;;;;5025253;28;20056;-82
2022/11/08 08:47:13;;;;;;;3.50;1.00;;;13.10;99.90;;;;;;5027945;28;20049;-84
2022/11/08 08:49:40;;;;;;;1.85;0.90;;;13.10;99.90;;;;;;5001064;28;20053;-84
2022/11/08 08:52:07;;;;;;;1.73;0.88;;;13.20;99.90;;;;;;5027599;28;20056;-83
2022/11/08 08:54:34;;;;;;;3.25;0.90;;;13.20;99.90;;;;;;5026428;28;20057;-84
2022/11/08 08:57:00;;;;;;;2.20;1.00;;;13.20;99.90;;;;;;5010684;28;20055;-85
2022/11/08 08:59:28;;;;;;;2.00;1.17;;;13.20;99.90;;;;;;5026670;28;20133;-86
2022/11/08 09:02:15;;;;;;;2.83;0.93;;;13.20;99.90;;;;;;5040023;28;20045;-83
2022/11/08 09:04:42;;;;;;;3.20;1.58;;;13.20;99.90;;;;;;5027264;28;20136;-85
2022/11/08 09:07:08;;;;;;;2.35;0.82;;;13.30;99.90;;;;;;5034288;28;20045;-83
2022/11/08 09:09:36;;;;;;;3.03;1.20;;;13.30;99.90;;;;;;5021929;28;20456;-83
2022/11/08 09:12:04;;;;;;;3.72;1.67;;;13.30;99.90;;;;;;5006797;28;20057;-83
2022/11/08 09:14:37;;;;;;;3.97;1.67;;;13.30;99.90;;;;;;5030156;28;20049;-85
2022/11/08 09:17:04;;;;;;;2.60;1.10;;;13.20;99.90;;;;;;5020435;28;20111;-83
2022/11/08 09:19:30;;;;;;;3.55;1.02;;;13.20;99.90;;;;;;5027266;28;20656;-85
2022/11/08 09:21:57;;;;;;;2.47;1.45;;;13.20;99.90;;;;;;5023924;28;20077;-83
2022/11/08 09:24:24;;;;;;;2.33;1.02;;;13.30;99.90;;;;;;5026078;28;20045;-88
2022/11/08 09:26:51;;;;;;;2.70;0.95;;;13.30;99.90;;;;;;5025085;28;20109;-84
2022/11/08 09:29:18;;;;;;;3.00;0.70;;;13.40;99.90;;;;;;5022977;28;20056;-84
2022/11/08 09:31:44;;;;;;;4.05;1.17;;;13.50;99.90;;;;;;5027287;28;20049;-84
2022/11/08 09:34:11;;;;;;;3.85;0.70;;;13.50;99.90;;;;;;5011485;28;20068;-82
2022/11/08 09:36:43;;;;;;;2.67;1.30;;;13.70;99.90;;;;;;5017608;28;20132;-83
2022/11/08 09:39:10;;;;;;;1.77;0.85;;;13.70;99.90;;;;;;5006389;28;20503;-82
2022/11/08 09:42:09;;;;;;;2.85;1.02;;;13.90;99.90;;;;;;5020355;28;20065;-83
2022/11/08 09:44:51;;;;;;;2.60;0.98;;;14.00;99.90;;;;;;5008867;28;20053;-83
2022/11/08 09:47:26;;;;;;;4.13;1.33;;;14.00;99.90;;;;;;4997956;28;20409;-82
2022/11/08 09:49:52;;;;;;;4.18;1.50;;;14.20;99.90;;;;;;5012386;28;20052;-83
2022/11/08 09:52:22;;;;;;;3.05;1.10;;;14.20;99.90;;;;;;5037742;28;20056;-83
2022/11/08 09:54:49;;;;;;;2.92;1.15;;;14.30;99.90;;;;;;5002185;28;20362;-83
2022/11/08 09:57:22;;;;;;;3.00;1.00;;;14.30;99.90;;;;;;5001981;28;20049;-83
2022/11/08 09:59:57;;;;;;;4.13;1.15;;;14.30;99.90;;;;;;5011911;28;20632;-83
2022/11/08 10:02:26;;;;;;;4.88;1.20;;;14.40;99.90;;;;;;5005049;28;20056;-83
2022/11/08 10:05:01;;;;;;;4.72;1.65;;;14.50;99.90;;;;;;5037752;28;20080;-82
2022/11/08 10:07:30;;;;;;;2.80;1.10;;;14.50;99.90;;;;;;5006450;28;20064;-84
2022/11/08 10:10:15;;;;;;;4.88;1.35;;;14.60;99.90;;;;;;5009285;28;20052;-82
2022/11/08 10:13:24;;;;;;;3.55;1.48;;;14.70;99.90;;;;;;5024329;28;20053;-83
2022/11/08 10:16:42;;;;;;;1.48;0.73;;;14.70;99.90;;;;;;4998552;28;20061;-83
2022/11/08 10:19:24;;;;;;;3.00;1.00;;;14.70;99.90;;;;;;4983421;28;20152;-84
2022/11/08 10:21:59;;;;;;;5.32;1.52;;;14.60;99.90;;;;;;5019510;28;20504;-83
2022/11/08 10:24:58;;;;;;;2.03;1.05;;;14.50;99.90;;;;;;5018488;28;20675;-83
2022/11/08 10:27:34;;;;;;;2.63;1.08;;;14.40;99.90;;;;;;5018007;28;20572;-83
2022/11/08 10:30:07;;;;;;;2.85;1.10;;;14.30;99.90;;;;;;5020669;28;20052;-82
2022/11/08 10:32:33;;;;;;;3.53;1.00;;;14.20;99.90;;;;;;5036837;28;20050;-84
2022/11/08 10:35:37;;;;;;;4.15;1.35;;;14.10;99.90;;;;;;5017305;28;20282;-83
2022/11/08 10:38:15;;;;;;;4.65;1.77;;;14.00;99.90;;;;;;5018502;28;20588;-83
2022/11/08 10:40:53;;;;;;;2.90;1.48;;;14.10;99.90;;;;;;5019168;28;20049;-83
2022/11/08 10:43:31;;;;;;;2.60;1.42;;;14.10;99.90;;;;;;5021351;28;20132;-84
2022/11/08 10:45:58;;;;;;;2.28;1.13;;;14.10;99.90;;;;;;5019179;28;20055;-83
2022/11/08 10:48:25;;;;;;;2.10;1.08;;;14.20;99.90;;;;;;5021133;28;20654;-81
2022/11/08 10:50:51;;;;;;;2.55;1.10;;;14.30;99.90;;;;;;5017693;28;20413;-81
2022/11/08 10:53:29;;;;;;;2.47;1.00;;;14.30;99.90;;;;;;5028139;28;20486;-81
2022/11/08 10:56:00;;;;;;;2.85;0.90;;;14.40;99.90;;;;;;5019755;28;20404;-81
2022/11/08 10:58:37;;;;;;;2.67;1.02;;;14.60;99.90;;;;;;5037803;28;20509;-81
2022/11/08 11:01:19;;;;;;;2.53;0.80;;;14.80;99.90;;;;;;5019231;28;20087;-82
2022/11/08 11:03:46;;;;;;;3.90;1.25;;;14.90;99.90;;;;;;5016271;28;20536;-81
2022/11/08 11:06:31;;;;;;;3.75;1.48;;;15.00;99.90;;;;;;5016998;28;20053;-81
2022/11/08 11:09:02;;;;;;;3.60;1.10;;;15.00;99.90;;;;;;5021748;28;20436;-81
2022/11/08 11:11:31;;;;;;;2.53;1.10;;;15.00;99.90;;;;;;5036916;28;20127;-81
2022/11/08 11:14:18;;;;;;;4.07;1.50;;;14.90;99.90;;;;;;5039522;28;20155;-82
2022/11/08 11:16:56;;;;;;;2.33;1.13;;;14.90;99.90;;;;;;5010061;28;20075;-83
2022/11/08 11:19:24;;;;;;;3.22;1.25;;;14.80;99.90;;;;;;5005623;28;20055;-82
2022/11/08 11:22:00;;;;;;;9.18;2.97;;;14.70;99.90;;;;;;5004642;28;20136;-78
2022/11/08 11:24:27;;;;;;;7.35;2.25;;;14.40;99.90;;;;;;5040549;28;20076;-76
2022/11/08 11:26:59;;;;;;;5.07;1.95;;;14.10;99.90;;;;;;5023821;28;20048;-75
2022/11/08 11:29:33;;;;;;;5.55;1.95;;;13.70;99.90;;;;;;5040752;28;20056;-75
2022/11/08 11:32:20;;;;;;;4.40;1.30;;;13.50;99.90;;;;;;5024193;28;20170;-77
2022/11/08 11:34:55;;;;;;;3.53;0.95;;;13.40;99.90;;;;;;5040120;28;20065;-78
2022/11/08 11:37:35;;;;;;;3.42;1.25;;;13.40;99.90;;;;;;5023967;28;20068;-77
2022/11/08 11:40:48;;;;;;;1.88;0.85;;;13.50;99.90;;;;;;5025221;28;20884;-78
2022/11/08 11:43:29;;;;;;;4.28;1.55;;;13.60;99.90;;;;;;5040798;28;20110;-77
2022/11/08 11:46:04;;;;;;;5.05;1.45;;;13.60;99.90;;;;;;5024350;28;20072;-78
2022/11/08 11:48:35;;;;;;;3.30;1.73;;;13.60;99.90;;;;;;5039944;28;20053;-79
2022/11/08 11:51:02;;;;;;;2.65;1.00;;;13.80;99.90;;;;;;5003388;28;20420;-79
2022/11/08 11:53:35;;;;;;;3.08;1.80;;;14.00;99.90;;;;;;4995672;28;20050;-79
2022/11/08 11:56:26;;;;;;;4.13;1.45;;;14.20;99.90;;;;;;5018746;28;20615;-79
2022/11/08 11:59:31;;;;;;;6.20;2.70;;;14.50;99.90;;;;;;5021517;28;20140;-79
2022/11/08 12:02:35;;;;;;;4.63;2.30;;;14.90;99.90;;;;;;5037377;28;20057;-80
2022/11/08 12:05:32;;;;;;;5.05;1.73;;;15.10;99.90;;;;;;5023615;28;20073;-80
2022/11/08 12:08:03;;;;;;;4.13;1.52;;;15.10;99.90;;;;;;5039377;28;20401;-81
2022/11/08 12:10:41;;;;;;;4.78;1.90;;;15.00;99.90;;;;;;5034138;28;20533;-81
2022/11/08 12:13:16;;;;;;;2.72;1.35;;;15.00;99.90;;;;;;5016555;28;20143;-80
2022/11/08 12:15:47;;;;;;;5.30;2.08;;;15.00;99.90;;;;;;5021078;28;20060;-80
2022/11/08 12:18:23;;;;;;;6.22;1.98;;;15.20;99.90;;;;;;5023684;28;20049;-81
2022/11/08 12:21:29;;;;;;;5.55;1.92;;;15.20;99.90;;;;;;5025997;28;20440;-81
2022/11/08 12:24:10;;;;;;;4.35;1.73;;;15.20;99.90;;;;;;5027790;28;20045;-81
2022/11/08 12:26:48;;;;;;;4.18;1.95;;;15.20;99.90;;;;;;5005493;28;20713;-81
2022/11/08 12:29:37;;;;;;;5.63;2.20;;;15.50;99.90;;;;;;5024425;28;20136;-81
2022/11/08 12:32:32;;;;;;;4.35;1.90;;;15.70;99.90;;;;;;5034862;28;20049;-81
2022/11/08 12:35:18;;;;;;;4.22;1.70;;;15.80;99.90;;;;;;5015289;28;20139;-82
2022/11/08 12:38:04;;;;;;;5.47;1.95;;;15.80;99.90;;;;;;5021099;28;20502;-82
2022/11/08 12:40:57;;;;;;;4.68;1.60;;;15.80;99.90;;;;;;5011708;28;20883;-82
2022/11/08 12:43:49;;;;;;;3.30;1.42;;;15.70;99.90;;;;;;5021803;28;20824;-82
2022/11/08 12:46:17;;;;;;;5.22;2.25;;;15.50;99.90;;;;;;5021667;28;20469;-82
2022/11/08 12:49:05;;;;;;;8.48;2.25;;;15.50;99.90;;;;;;5010569;28;20084;-82
2022/11/08 12:51:39;;;;;;;2.90;1.50;;;15.40;99.90;;;;;;5028915;28;20057;-82
2022/11/08 12:54:43;;;;;;;7.57;2.03;;;15.40;99.90;;;;;;5025325;28;20420;-82
2022/11/08 12:57:12;;;;;;;4.90;2.00;;;15.30;99.90;;;;;;5012277;28;20049;-81
2022/11/08 12:59:46;;;;;;;4.50;1.77;;;15.30;99.90;;;;;;5026328;28;20574;-81
2022/11/08 13:02:21;;;;;;;3.60;1.35;;;15.30;99.90;;;;;;5025313;28;20691;-81
2022/11/08 13:05:23;;;;;;;3.88;1.63;;;15.40;99.90;;;;;;5013621;28;20651;-82
2022/11/08 13:07:52;;;;;;;3.88;1.75;;;15.40;99.90;;;;;;5020613;28;20492;-82
2022/11/08 13:10:55;;;;;;;3.72;1.55;;;15.30;99.90;;;;;;5026800;28;20049;-82
2022/11/08 13:13:26;;;;;;;4.63;1.50;;;15.20;99.90;;;;;;4996225;28;20051;-82
2022/11/08 13:16:16;;;;;;;8.02;2.53;;;14.90;99.90;;;;;;5023045;28;20132;-82
2022/11/08 13:18:56;;;;;;;6.97;2.50;;;14.70;99.90;;;;;;5026644;28;20047;-82
2022/11/08 13:21:29;;;;;;;5.35;1.90;;;14.70;99.90;;;;;;5015022;28;20053;-82
2022/11/08 13:24:01;;;;;;;5.32;1.73;;;14.70;99.90;;;;;;5021766;28;20721;-82
2022/11/08 13:26:43;;;;;;;3.80;1.50;;;14.70;99.90;;;;;;5030029;28;20059;-81
2022/11/08 13:29:16;;;;;;;6.57;2.00;;;14.80;99.90;;;;;;5030546;28;20152;-81
2022/11/08 13:31:54;;;;;;;7.50;1.70;;;14.80;99.90;;;;;;5015973;28;20060;-82